Time;durP1;ratioP1;P1;durP2;ratioP2;P2;SDS_P1;SDS_P2;PMS_P1;PMS_P2;Temp;Humidity;BMP_temperature;BMP_pressure;BME280_temperature;BME280_humidity;BME280_pressure;Samples;Min_cycle;Max_cycle;Signal;HPM_P1;HPM_P2
2022/12/11 00:02:21;;;;;;;40.92;18.73;;;;;;;7.42;100.00;99021.88;4869255;29;20045;-78
2022/12/11 00:04:48;;;;;;;50.53;21.55;;;;;;;7.51;100.00;99018.16;4868692;29;20060;-78
2022/12/11 00:07:16;;;;;;;46.42;20.88;;;;;;;7.52;100.00;99021.66;4879628;29;20045;-77
2022/12/11 00:09:44;;;;;;;42.47;20.65;;;;;;;7.51;100.00;99029.03;4869676;29;20115;-79
2022/12/11 00:12:11;;;;;;;51.22;21.35;;;;;;;7.50;100.00;99035.59;4879756;29;20060;-78
2022/12/11 00:14:39;;;;;;;47.17;20.70;;;;;;;7.44;100.00;99025.91;4879429;29;20048;-78
2022/12/11 00:17:06;;;;;;;43.95;19.80;;;;;;;7.52;100.00;99025.22;4879276;29;20060;-78
2022/12/11 00:19:34;;;;;;;48.90;21.00;;;;;;;7.57;100.00;99031.69;4879405;29;20060;-78
2022/12/11 00:22:02;;;;;;;49.08;20.73;;;;;;;7.60;100.00;99026.44;4879693;29;20060;-78
2022/12/11 00:24:29;;;;;;;48.15;21.70;;;;;;;7.57;100.00;99031.69;4878675;29;20500;-78
2022/12/11 00:26:57;;;;;;;41.92;20.35;;;;;;;7.61;100.00;99035.41;4878996;29;20049;-78
2022/12/11 00:29:25;;;;;;;51.83;23.52;;;;;;;7.69;100.00;99042.09;4879135;29;20053;-78
2022/12/11 00:31:53;;;;;;;49.53;21.35;;;;;;;7.66;100.00;99032.59;4879568;29;20499;-78
2022/12/11 00:34:20;;;;;;;41.25;19.50;;;;;;;7.65;100.00;99039.97;4878945;29;20064;-78
2022/12/11 00:36:48;;;;;;;41.90;20.35;;;;;;;7.76;100.00;99031.63;4879544;29;20052;-78
2022/12/11 00:39:16;;;;;;;52.00;22.33;;;;;;;7.69;100.00;99036.66;4879156;29;20839;-78
2022/12/11 00:41:43;;;;;;;53.78;21.58;;;;;;;7.75;100.00;99047.16;4877793;29;20096;-78
2022/12/11 00:44:11;;;;;;;49.15;21.58;;;;;;;7.73;100.00;99045.84;4872522;29;20080;-78
2022/12/11 00:46:39;;;;;;;44.65;19.17;;;;;;;7.71;100.00;99046.13;4878325;29;20049;-78
2022/12/11 00:49:06;;;;;;;48.65;20.00;;;;;;;7.76;100.00;99047.97;4879416;29;20056;-78
2022/12/11 00:51:34;;;;;;;44.28;20.77;;;;;;;7.72;100.00;99057.84;4878992;29;20045;-78
2022/12/11 00:54:02;;;;;;;48.47;20.48;;;;;;;7.71;100.00;99048.84;4878838;29;20057;-78
2022/12/11 00:56:33;;;;;;;47.75;20.02;;;;;;;7.70;100.00;99052.69;4877634;29;20057;-78
2022/12/11 00:59:00;;;;;;;51.20;21.48;;;;;;;7.79;100.00;99053.63;4879153;29;20053;-78
2022/12/11 01:01:28;;;;;;;45.60;21.00;;;;;;;7.60;100.00;99058.31;4879220;29;20049;-78
2022/12/11 01:03:56;;;;;;;46.97;20.52;;;;;;;7.51;100.00;99063.63;4877237;29;20056;-78
2022/12/11 01:06:26;;;;;;;45.03;19.83;;;;;;;7.56;100.00;99065.44;4878897;29;20057;-78
2022/12/11 01:11:42;;;;;;;46.85;20.52;;;;;;;7.84;100.00;99070.97;4860382;29;20061;-78
2022/12/11 01:14:10;;;;;;;54.45;22.45;;;;;;;7.71;100.00;99057.03;4862012;29;20065;-78
2022/12/11 01:16:38;;;;;;;53.63;23.23;;;;;;;7.58;100.00;99063.25;4879049;29;20052;-78
2022/12/11 01:19:05;;;;;;;50.45;21.40;;;;;;;7.65;100.00;99063.66;4878808;29;20378;-78
2022/12/11 01:21:33;;;;;;;49.75;22.23;;;;;;;7.59;100.00;99065.69;4878904;29;20064;-78
2022/12/11 01:24:01;;;;;;;50.13;21.50;;;;;;;7.60;100.00;99063.75;4878324;29;20519;-77
2022/12/11 01:26:29;;;;;;;46.13;20.73;;;;;;;7.73;100.00;99071.16;4876728;29;20416;-77
2022/12/11 01:28:57;;;;;;;46.35;20.08;;;;;;;7.62;100.00;99069.72;4878190;29;20056;-78
2022/12/11 01:31:25;;;;;;;39.65;18.75;;;;;;;7.96;100.00;99067.78;4878258;29;20069;-78
2022/12/11 01:33:54;;;;;;;46.17;19.50;;;;;;;7.84;100.00;99068.25;4878499;29;20041;-78
2022/12/11 01:36:22;;;;;;;50.97;20.98;;;;;;;7.79;100.00;99075.41;4877370;29;20049;-78
2022/12/11 01:38:50;;;;;;;42.30;19.42;;;;;;;7.84;100.00;99082.69;4877580;29;20061;-78
2022/12/11 01:41:17;;;;;;;43.85;19.17;;;;;;;7.88;100.00;99086.41;4862381;29;20062;-78
2022/12/11 01:43:58;;;;;;;43.60;19.45;;;;;;;7.75;100.00;99084.47;4869240;29;20060;-78
2022/12/11 01:46:28;;;;;;;47.47;20.63;;;;;;;7.80;100.00;99082.50;4877586;29;20704;-78
2022/12/11 01:48:56;;;;;;;43.42;19.88;;;;;;;7.82;100.00;99090.34;4878265;29;20052;-78
2022/12/11 01:51:25;;;;;;;47.63;21.42;;;;;;;7.72;100.00;99091.31;4878069;29;20522;-78
2022/12/11 01:54:00;;;;;;;46.78;21.17;;;;;;;7.77;100.00;99091.25;4878187;29;20070;-78
2022/12/11 01:56:32;;;;;;;51.50;22.15;;;;;;;7.57;100.00;99077.97;4877396;29;20088;-78
2022/12/11 01:59:06;;;;;;;45.28;21.20;;;;;;;7.65;100.00;99086.28;4878295;29;20053;-78
2022/12/11 02:01:46;;;;;;;;;;;;;;;7.77;100.00;99087.72;4877518;29;20060;-78
2022/12/11 02:04:14;;;;;;;44.00;19.95;;;;;;;7.56;100.00;99088.03;4892230;29;19924;-77
2022/12/11 02:06:49;;;;;;;49.17;21.52;;;;;;;7.38;100.00;99086.97;4876763;29;20053;-77
2022/12/11 02:09:31;;;;;;;44.38;20.67;;;;;;;7.37;100.00;99090.78;4878461;29;20049;-77
2022/12/11 02:12:03;;;;;;;42.67;19.35;;;;;;;7.46;100.00;99088.19;4877917;29;20061;-77
2022/12/11 02:14:43;;;;;;;40.17;20.42;;;;;;;7.64;100.00;99097.44;4877753;29;20057;-77
2022/12/11 02:17:15;;;;;;;42.30;19.35;;;;;;;7.77;100.00;99095.91;4877776;29;20060;-78
2022/12/11 02:19:56;;;;;;;43.33;19.73;;;;;;;7.74;100.00;99100.03;4878209;29;20049;-77
2022/12/11 02:22:42;;;;;;;38.90;19.25;;;;;;;7.95;100.00;99105.13;4878242;29;20051;-78
2022/12/11 02:25:24;;;;;;;32.13;16.75;;;;;;;7.63;100.00;99095.84;4877287;29;20064;-78
2022/12/11 02:28:14;;;;;;;38.70;19.25;;;;;;;7.75;100.00;99100.81;4877595;29;20045;-77
2022/12/11 02:30:49;;;;;;;35.83;18.70;;;;;;;7.85;100.00;99097.09;4877597;29;20389;-78
2022/12/11 02:33:25;;;;;;;32.35;17.17;;;;;;;7.77;100.00;99101.34;4877454;29;20523;-78
2022/12/11 02:35:53;;;;;;;33.50;17.15;;;;;;;7.70;100.00;99098.16;4877456;29;20053;-78
2022/12/11 02:38:30;;;;;;;41.10;18.45;;;;;;;7.53;100.00;99113.94;4877897;29;20064;-78
2022/12/11 02:41:00;;;;;;;35.05;16.25;;;;;;;7.65;100.00;99108.06;4877570;29;20061;-79
2022/12/11 02:43:31;;;;;;;31.65;15.80;;;;;;;7.71;100.00;99108.78;4877679;29;20060;-79
2022/12/11 02:46:00;;;;;;;32.08;16.67;;;;;;;7.91;100.00;99094.00;4877535;29;20049;-79
2022/12/11 02:48:29;;;;;;;27.10;14.30;;;;;;;7.91;100.00;99101.34;4877990;29;20077;-79
2022/12/11 02:50:58;;;;;;;30.38;14.85;;;;;;;8.10;100.00;99097.75;4881087;29;20056;-79
2022/12/11 02:53:30;;;;;;;28.58;15.15;;;;;;;7.91;100.00;99088.56;4879876;29;20052;-79
2022/12/11 02:56:07;;;;;;;30.13;15.07;;;;;;;7.93;100.00;99086.34;4880891;29;20065;-80
2022/12/11 02:58:41;;;;;;;35.20;16.90;;;;;;;7.93;100.00;99085.53;4881202;29;20065;-79
2022/12/11 03:01:09;;;;;;;35.50;16.50;;;;;;;8.01;100.00;99087.56;4880815;29;20527;-79
2022/12/11 03:03:37;;;;;;;31.92;15.77;;;;;;;7.96;100.00;99084.94;4881042;29;20053;-79
2022/12/11 03:06:05;;;;;;;31.65;15.07;;;;;;;8.07;100.00;99080.13;4880180;29;20049;-79
2022/12/11 03:08:33;;;;;;;28.10;16.00;;;;;;;8.06;100.00;99073.84;4881079;29;20037;-79
2022/12/11 03:11:00;;;;;;;28.55;15.05;;;;;;;8.00;100.00;99085.97;4880702;29;20052;-79
2022/12/11 03:13:28;;;;;;;27.92;14.77;;;;;;;8.04;100.00;99086.97;4895313;29;20511;-79
2022/12/11 03:16:06;;;;;;;24.77;14.52;;;;;;;7.96;100.00;99084.13;4880944;29;20051;-79
2022/12/11 03:18:43;;;;;;;30.60;16.23;;;;;;;7.99;100.00;99088.97;4880924;29;20060;-79
2022/12/11 03:21:10;;;;;;;25.90;13.75;;;;;;;8.10;100.00;99093.13;4879164;29;20412;-79
2022/12/11 03:24:14;;;;;;;29.10;13.23;;;;;;;8.14;100.00;99106.97;4879984;29;20049;-79
2022/12/11 03:26:49;;;;;;;21.88;12.82;;;;;;;8.13;100.00;99111.63;4880528;29;20547;-79
2022/12/11 03:29:29;;;;;;;21.23;11.88;;;;;;;8.16;100.00;99112.94;4880669;29;20057;-80
2022/12/11 03:32:21;;;;;;;20.92;11.80;;;;;;;8.23;100.00;99123.44;4879652;29;20063;-79
2022/12/11 03:34:56;;;;;;;17.73;11.27;;;;;;;8.27;100.00;99130.69;4877034;29;20053;-79
2022/12/11 03:37:39;;;;;;;19.73;11.15;;;;;;;8.24;100.00;99128.59;4880769;29;20064;-79
2022/12/11 03:40:16;;;;;;;17.83;10.30;;;;;;;8.35;100.00;99123.75;4895705;29;20413;-79
2022/12/11 03:42:48;;;;;;;18.38;10.77;;;;;;;8.30;100.00;99129.28;4880360;29;20515;-79
2022/12/11 03:45:18;;;;;;;18.33;10.77;;;;;;;8.32;100.00;99136.06;4879767;29;20041;-80
2022/12/11 03:47:46;;;;;;;19.38;11.13;;;;;;;8.43;100.00;99130.44;4880150;29;20109;-79
2022/12/11 03:50:17;;;;;;;19.30;10.90;;;;;;;8.43;100.00;99133.97;4894334;29;20492;-79
2022/12/11 03:52:46;;;;;;;16.23;9.98;;;;;;;8.22;100.00;99130.00;4879920;29;20543;-79
2022/12/11 03:55:17;;;;;;;13.60;8.73;;;;;;;8.12;100.00;99136.44;4878532;29;20048;-79
2022/12/11 03:57:45;;;;;;;11.07;6.97;;;;;;;7.96;100.00;99144.06;4879679;29;20406;-79
2022/12/11 04:00:17;;;;;;;6.85;4.57;;;;;;;7.69;100.00;99146.38;4879550;29;20496;-79
2022/12/11 04:03:11;;;;;;;4.45;3.83;;;;;;;7.63;100.00;99147.56;4879725;29;20060;-79
2022/12/11 04:05:47;;;;;;;;;;;;;;;7.26;100.00;99156.25;4893806;29;20045;-78
2022/12/11 04:08:16;;;;;;;2.22;1.75;;;;;;;7.11;100.00;99153.72;4880046;29;19927;-79
2022/12/11 04:10:44;;;;;;;2.88;1.65;;;;;;;6.75;100.00;99148.72;4879155;29;20073;-79
2022/12/11 04:13:13;;;;;;;1.52;1.38;;;;;;;6.71;100.00;99153.94;4879550;29;20065;-78
2022/12/11 04:15:40;;;;;;;2.10;1.27;;;;;;;6.78;100.00;99150.84;4876635;29;20045;-78
2022/12/11 04:26:28;;;;;;;1.13;1.02;;;;;;;6.78;100.00;99156.28;4879773;29;20053;-79
2022/12/11 04:28:56;;;;;;;1.70;1.60;;;;;;;6.81;100.00;99150.28;4879677;29;20045;-79
2022/12/11 04:31:23;;;;;;;2.40;1.48;;;;;;;6.77;100.00;99155.50;4879198;29;20053;-78
2022/12/11 04:33:52;;;;;;;1.50;1.40;;;;;;;6.88;100.00;99160.81;4879341;29;20045;-79
2022/12/11 04:36:20;;;;;;;2.25;1.50;;;;;;;6.92;100.00;99159.13;4879011;29;20052;-78
2022/12/11 04:38:47;;;;;;;1.00;0.95;;;;;;;6.80;100.00;99148.66;4864763;29;20408;-79
2022/12/11 04:41:16;;;;;;;1.73;1.17;;;;;;;6.82;100.00;99146.44;4879144;29;20048;-79
2022/12/11 04:43:44;;;;;;;1.50;1.40;;;;;;;6.75;100.00;99154.16;4878008;29;20052;-79
2022/12/11 04:46:18;;;;;;;1.42;1.33;;;;;;;6.80;100.00;99156.81;4879004;29;20052;-79
2022/12/11 04:48:47;;;;;;;1.20;0.80;;;;;;;6.79;100.00;99152.47;4879079;29;20064;-79
2022/12/11 04:51:22;;;;;;;2.65;1.40;;;;;;;6.74;100.00;99142.47;4878546;29;20492;-78
2022/12/11 04:53:49;;;;;;;1.02;1.02;;;;;;;6.78;100.00;99162.53;4878227;29;20049;-78
2022/12/11 04:56:18;;;;;;;3.45;1.10;;;;;;;6.74;100.00;99166.13;4892394;29;20056;-79
2022/12/11 04:58:47;;;;;;;1.20;1.10;;;;;;;6.58;100.00;99167.09;4878590;29;20060;-79
2022/12/11 05:01:17;;;;;;;0.85;0.85;;;;;;;6.60;100.00;99169.50;4878709;29;20063;-79
2022/12/11 05:03:46;;;;;;;0.90;0.90;;;;;;;6.59;100.00;99162.47;4892892;29;20048;-79
2022/12/11 05:06:14;;;;;;;1.13;0.63;;;;;;;6.64;100.00;99167.84;4879112;29;20404;-78
2022/12/11 05:08:42;;;;;;;0.65;0.65;;;;;;;6.52;100.00;99162.00;4877166;29;20523;-78
2022/12/11 05:11:12;;;;;;;0.63;0.52;;;;;;;6.56;100.00;99161.13;4868934;29;20081;-79
2022/12/11 05:13:41;;;;;;;1.30;0.60;;;;;;;6.40;100.00;99157.75;4877756;29;20068;-79
2022/12/11 05:16:11;;;;;;;0.90;0.90;;;;;;;6.44;100.00;99152.56;4878990;29;20037;-79
2022/12/11 05:18:39;;;;;;;1.00;0.80;;;;;;;6.51;100.00;99149.50;4878298;29;20414;-79
2022/12/11 05:21:10;;;;;;;0.55;0.55;;;;;;;6.53;100.00;99147.31;4878349;29;20060;-79
2022/12/11 05:23:38;;;;;;;1.13;0.80;;;;;;;6.35;100.00;99155.09;4878460;29;20065;-79
2022/12/11 05:26:10;;;;;;;0.70;0.70;;;;;;;6.18;99.93;99166.41;4878289;29;20080;-78
2022/12/11 05:28:38;;;;;;;1.98;1.25;;;;;;;6.17;100.00;99157.44;4878686;29;20045;-79
2022/12/11 05:31:12;;;;;;;1.05;0.90;;;;;;;6.23;100.00;99160.94;4878215;29;20400;-80
2022/12/11 05:33:41;;;;;;;1.20;1.10;;;;;;;6.28;99.93;99154.63;4864647;29;20053;-79
2022/12/11 05:36:14;;;;;;;2.20;1.10;;;;;;;6.29;100.00;99157.06;4861885;29;20054;-79
2022/12/11 05:38:42;;;;;;;1.30;1.20;;;;;;;6.27;99.75;99155.72;4872844;29;20056;-79
2022/12/11 05:41:13;;;;;;;1.10;0.95;;;;;;;6.22;99.52;99153.06;4878563;29;20049;-79
2022/12/11 05:43:41;;;;;;;0.82;0.73;;;;;;;6.35;98.80;99159.75;4877790;29;20044;-79
2022/12/11 05:46:16;;;;;;;1.05;0.85;;;;;;;6.41;99.95;99161.31;4877296;29;20057;-79
2022/12/11 05:48:47;;;;;;;1.08;0.98;;;;;;;6.41;98.42;99143.06;4878376;29;20052;-80
2022/12/11 05:51:16;;;;;;;2.88;0.80;;;;;;;6.38;98.06;99146.38;4878298;29;20064;-80
2022/12/11 05:53:45;;;;;;;1.20;0.90;;;;;;;6.43;97.89;99150.94;4877934;29;20049;-80
2022/12/11 05:56:33;;;;;;;0.90;0.90;;;;;;;6.54;97.89;99141.59;4878491;29;20396;-80
2022/12/11 05:59:03;;;;;;;2.33;1.23;;;;;;;6.57;98.07;99132.06;4877332;29;20407;-79
2022/12/11 06:01:34;;;;;;;1.13;1.13;;;;;;;6.57;98.36;99129.34;4877636;29;20052;-78
2022/12/11 06:04:04;;;;;;;3.28;1.23;;;;;;;6.62;99.99;99133.91;4877623;29;20057;-79
2022/12/11 06:06:32;;;;;;;1.90;1.05;;;;;;;6.48;100.00;99131.06;4877932;29;20534;-79
2022/12/11 06:09:01;;;;;;;1.02;1.00;;;;;;;6.45;99.50;99127.81;4878012;29;20049;-78
2022/12/11 06:11:31;;;;;;;1.05;0.88;;;;;;;6.40;99.23;99133.31;4877953;29;20045;-78
2022/12/11 06:14:01;;;;;;;1.17;1.17;;;;;;;6.30;100.00;99128.78;4878187;29;20064;-78
2022/12/11 06:16:29;;;;;;;0.80;0.80;;;;;;;6.39;99.79;99128.16;4877519;29;20065;-78
2022/12/11 06:18:57;;;;;;;1.23;1.08;;;;;;;6.65;99.40;99125.19;4877986;29;20060;-78
2022/12/11 06:21:30;;;;;;;2.67;1.20;;;;;;;6.67;99.16;99121.06;4876763;29;20045;-78
2022/12/11 06:24:00;;;;;;;1.17;0.90;;;;;;;6.45;97.95;99124.28;4878423;29;20065;-78
2022/12/11 06:26:29;;;;;;;0.60;0.60;;;;;;;6.40;96.54;99122.44;4881508;29;20048;-78
2022/12/11 06:28:57;;;;;;;2.50;0.80;;;;;;;6.56;96.61;99128.50;4881702;29;20056;-78
2022/12/11 06:31:24;;;;;;;0.73;0.70;;;;;;;6.76;97.54;99136.72;4881101;29;20053;-77
2022/12/11 06:33:53;;;;;;;0.60;0.60;;;;;;;6.77;98.02;99130.19;4881394;29;20060;-78
2022/12/11 06:36:22;;;;;;;0.60;0.60;;;;;;;6.64;97.98;99132.50;4881327;29;20057;-78
2022/12/11 06:38:50;;;;;;;0.90;0.70;;;;;;;6.53;100.00;99131.00;4880927;29;20049;-78
2022/12/11 06:41:18;;;;;;;0.93;0.88;;;;;;;6.59;98.93;99143.44;4881516;29;20053;-78
2022/12/11 06:43:46;;;;;;;1.77;1.17;;;;;;;6.43;100.00;99142.78;4879395;29;20049;-78
2022/12/11 06:46:17;;;;;;;0.85;0.85;;;;;;;6.36;98.31;99154.00;4893558;29;20060;-77
2022/12/11 06:48:45;;;;;;;0.93;0.80;;;;;;;6.34;98.76;99150.75;4880027;29;20053;-78
2022/12/11 06:51:19;;;;;;;0.50;0.50;;;;;;;6.62;96.95;99151.03;4881146;29;20493;-77
2022/12/11 06:53:52;;;;;;;0.17;0.17;;;;;;;6.61;91.77;99157.56;4879251;29;20049;-79
2022/12/11 06:56:20;;;;;;;0.38;0.38;;;;;;;6.60;94.12;99158.66;4880971;29;20056;-79
2022/12/11 06:58:48;;;;;;;3.40;1.88;;;;;;;6.50;95.87;99156.84;4880919;29;20064;-79
2022/12/11 07:01:22;;;;;;;1.67;1.23;;;;;;;6.65;93.65;99158.59;4880909;29;20045;-78
2022/12/11 07:03:54;;;;;;;1.70;1.27;;;;;;;6.75;93.29;99163.09;4910033;29;20060;-78
2022/12/11 07:06:23;;;;;;;3.10;2.05;;;;;;;6.75;98.09;99170.47;4889655;29;20492;-78
2022/12/11 07:08:52;;;;;;;2.58;1.80;;;;;;;6.65;98.60;99169.47;4879675;29;20501;-79
2022/12/11 07:11:20;;;;;;;1.52;1.00;;;;;;;6.74;95.17;99174.28;4880671;29;20056;-79
2022/12/11 07:13:48;;;;;;;1.02;0.63;;;;;;;6.75;92.45;99167.75;4879933;29;20068;-80
2022/12/11 07:16:17;;;;;;;0.70;0.70;;;;;;;6.77;94.40;99166.38;4879821;29;20053;-79
2022/12/11 07:18:49;;;;;;;0.60;0.60;;;;;;;6.70;93.21;99161.25;4884939;29;20049;-79
2022/12/11 07:21:18;;;;;;;1.75;0.50;;;;;;;6.44;91.53;99172.41;4885618;29;20052;-78
2022/12/11 07:23:48;;;;;;;0.45;0.45;;;;;;;6.51;92.88;99168.53;4878223;29;20052;-80
2022/12/11 07:26:18;;;;;;;0.38;0.38;;;;;;;6.56;95.03;99174.72;4876215;29;20056;-78
2022/12/11 07:28:46;;;;;;;0.47;0.47;;;;;;;6.59;93.58;99176.88;4878348;29;20049;-77
2022/12/11 07:31:20;;;;;;;0.65;0.65;;;;;;;6.74;95.45;99179.72;4880672;29;20072;-77
2022/12/11 07:33:55;;;;;;;0.52;0.52;;;;;;;6.78;98.95;99184.28;4880163;29;20063;-77
2022/12/11 07:36:23;;;;;;;1.35;0.55;;;;;;;6.84;97.53;99187.75;4877446;29;20381;-78
2022/12/11 07:38:52;;;;;;;0.80;0.80;;;;;;;6.83;98.55;99189.69;4876879;29;20060;-79
2022/12/11 07:41:21;;;;;;;1.23;0.90;;;;;;;6.85;100.00;99198.34;4877408;29;20060;-78
2022/12/11 07:43:53;;;;;;;1.10;0.90;;;;;;;6.93;99.29;99183.31;4876864;29;20076;-78
2022/12/11 07:46:24;;;;;;;0.90;0.63;;;;;;;6.91;98.51;99192.84;4875971;29;20522;-79
2022/12/11 07:48:52;;;;;;;1.75;0.63;;;;;;;7.01;97.94;99195.47;4876635;29;20052;-79
2022/12/11 07:51:26;;;;;;;0.70;0.70;;;;;;;6.97;98.15;99197.13;4876746;29;20052;-77
2022/12/11 07:54:00;;;;;;;1.30;1.20;;;;;;;6.93;97.64;99210.50;4880177;29;20064;-78
2022/12/11 07:56:29;;;;;;;1.27;1.17;;;;;;;7.05;97.39;99215.56;4880321;29;20057;-79
2022/12/11 07:59:03;;;;;;;1.75;0.77;;;;;;;6.76;97.29;99232.72;4880148;29;20049;-78
2022/12/11 08:01:35;;;;;;;1.88;1.20;;;;;;;6.28;99.61;99238.84;4879937;29;20396;-78
2022/12/11 08:04:09;;;;;;;1.00;1.00;;;;;;;6.34;100.00;99251.28;4860051;29;20058;-77
2022/12/11 08:06:39;;;;;;;1.00;0.95;;;;;;;6.66;98.83;99247.22;4874036;29;20056;-87
2022/12/11 08:09:09;;;;;;;1.92;1.45;;;;;;;6.82;98.62;99250.59;4878393;29;20071;-91
2022/12/11 08:11:47;;;;;;;2.05;1.80;;;;;;;7.06;98.44;99251.72;4879823;29;20492;-93
2022/12/11 08:14:15;;;;;;;1.38;1.27;;;;;;;7.13;97.54;99249.44;4879200;29;20080;-93
2022/12/11 08:16:43;;;;;;;2.17;1.70;;;;;;;7.04;98.27;99262.06;4861593;29;20497;-92
2022/12/11 08:19:11;;;;;;;3.83;2.42;;;;;;;6.84;99.60;99270.16;4909614;29;20496;-93
2022/12/11 08:21:40;;;;;;;3.22;1.90;;;;;;;6.75;100.00;99271.06;4868075;29;20056;-92
2022/12/11 08:24:08;;;;;;;4.20;2.60;;;;;;;6.94;100.00;99271.97;4877704;29;20531;-92
2022/12/11 08:26:36;;;;;;;4.13;2.42;;;;;;;6.88;99.19;99283.97;4879863;29;20060;-93
2022/12/11 08:29:04;;;;;;;3.35;2.17;;;;;;;7.04;99.24;99286.56;4879185;29;20045;-92
2022/12/11 08:31:32;;;;;;;3.35;2.20;;;;;;;7.12;99.10;99292.19;4879486;29;20048;-92
2022/12/11 08:34:00;;;;;;;2.35;2.10;;;;;;;7.08;97.68;99301.19;4893710;29;20052;-92
2022/12/11 08:36:28;;;;;;;2.13;1.80;;;;;;;6.94;95.35;99303.81;4879084;29;20056;-91
2022/12/11 08:38:56;;;;;;;2.42;2.05;;;;;;;7.03;95.71;99298.53;4879425;29;20056;-89
2022/12/11 08:41:27;;;;;;;7.45;2.70;;;;;;;7.02;93.42;99302.34;4879440;29;20053;-87
2022/12/11 08:43:56;;;;;;;3.22;2.08;;;;;;;6.88;94.97;99308.47;4879188;29;20052;-86
2022/12/11 08:46:26;;;;;;;4.43;2.45;;;;;;;6.88;94.95;99307.66;4878882;29;20053;-88
2022/12/11 08:48:54;;;;;;;3.40;1.98;;;;;;;7.04;92.97;99316.47;4878564;29;20060;-88
2022/12/11 08:51:25;;;;;;;1.70;1.60;;;;;;;7.13;91.18;99320.19;4878810;29;20068;-88
2022/12/11 08:53:57;;;;;;;1.83;1.52;;;;;;;6.99;91.38;99322.75;4878888;29;20056;-89
2022/12/11 08:56:27;;;;;;;1.65;1.55;;;;;;;7.15;90.96;99333.50;4908434;29;20064;-90
2022/12/11 08:58:55;;;;;;;2.47;1.70;;;;;;;6.95;92.09;99332.63;4878568;29;20049;-87
2022/12/11 09:01:25;;;;;;;3.13;1.67;;;;;;;6.81;88.05;99338.72;4878063;29;20496;-88
2022/12/11 09:03:55;;;;;;;2.22;1.70;;;;;;;7.05;89.48;99337.13;4877495;29;20074;-88
2022/12/11 09:06:26;;;;;;;2.40;1.63;;;;;;;7.11;87.59;99338.72;4878318;29;20049;-88
2022/12/11 09:08:54;;;;;;;2.83;2.40;;;;;;;7.04;88.75;99346.41;4878305;29;20568;-88
2022/12/11 09:11:27;;;;;;;2.55;2.13;;;;;;;6.84;87.16;99350.91;4878588;29;20049;-88
2022/12/11 09:13:55;;;;;;;2.65;2.00;;;;;;;6.86;87.98;99351.47;4878865;29;20056;-84
2022/12/11 09:16:24;;;;;;;3.22;2.13;;;;;;;6.84;89.59;99348.19;4878991;29;20068;-87
2022/12/11 09:18:54;;;;;;;2.85;2.40;;;;;;;6.73;88.23;99358.34;4879152;29;20064;-85
2022/12/11 09:21:27;;;;;;;4.22;2.03;;;;;;;6.63;89.14;99361.13;4861907;29;20057;-85
2022/12/11 09:23:58;;;;;;;4.97;2.42;;;;;;;6.59;88.01;99367.16;4872742;29;20061;-88
2022/12/11 09:26:27;;;;;;;4.20;2.78;;;;;;;6.62;88.75;99364.97;4859655;29;20061;-88
2022/12/11 09:28:56;;;;;;;5.47;2.97;;;;;;;6.87;90.07;99366.66;4859967;29;20073;-88
2022/12/11 09:31:29;;;;;;;7.90;4.30;;;;;;;6.95;91.22;99373.41;4859974;29;20070;-87
2022/12/11 09:34:00;;;;;;;10.00;5.57;;;;;;;7.01;92.32;99375.00;4860237;29;20488;-87
2022/12/11 09:36:29;;;;;;;4.88;3.50;;;;;;;7.09;90.36;99379.81;4860089;29;20421;-87
2022/12/11 09:39:01;;;;;;;6.13;4.10;;;;;;;7.19;90.52;99378.88;4860260;29;20049;-87
2022/12/11 09:41:35;;;;;;;6.00;5.43;;;;;;;6.85;92.25;99379.75;4860289;29;20045;-87
2022/12/11 09:44:26;;;;;;;5.25;4.47;;;;;;;6.82;91.57;99381.13;4859863;29;20065;-86
2022/12/11 09:46:55;;;;;;;9.15;5.47;;;;;;;6.93;91.02;99384.56;4859865;29;20045;-87
2022/12/11 09:49:31;;;;;;;8.48;4.72;;;;;;;6.90;92.50;99382.44;4859839;29;20053;-87
2022/12/11 09:52:33;;;;;;;7.70;5.15;;;;;;;6.91;90.41;99383.22;4859837;29;20046;-87
2022/12/11 09:55:23;;;;;;;11.80;6.30;;;;;;;7.04;93.07;99384.50;4852433;29;20060;-87
2022/12/11 09:57:51;;;;;;;7.88;5.57;;;;;;;7.02;90.68;99383.94;4860242;29;20058;-87
2022/12/11 10:00:31;;;;;;;5.60;4.45;;;;;;;6.93;91.57;99379.13;4862888;29;20052;-87
2022/12/11 10:03:07;;;;;;;4.65;3.55;;;;;;;7.02;90.72;99381.22;4863152;29;20050;-88
2022/12/11 10:05:51;;;;;;;6.20;5.03;;;;;;;7.04;90.11;99384.50;4863422;29;20493;-87
2022/12/11 10:08:38;;;;;;;10.13;7.80;;;;;;;6.96;90.87;99369.59;4863610;29;20080;-87
2022/12/11 10:11:31;;;;;;;25.88;17.52;;;;;;;7.07;91.58;99375.75;4863179;29;20302;-88
2022/12/11 10:14:16;;;;;;;24.25;16.77;;;;;;;7.14;92.75;99368.09;4856748;29;20520;-88
2022/12/11 10:16:56;;;;;;;9.38;7.10;;;;;;;7.10;92.94;99364.31;4863767;29;20064;-87
2022/12/11 10:19:27;;;;;;;8.75;6.55;;;;;;;7.15;93.26;99366.97;4863544;29;20128;-88
2022/12/11 10:21:58;;;;;;;10.45;7.03;;;;;;;7.12;94.82;99373.81;4862830;29;20049;-88
2022/12/11 10:24:38;;;;;;;6.10;4.50;;;;;;;7.08;93.65;99363.75;4862868;29;20076;-88
2022/12/11 10:27:32;;;;;;;5.65;3.90;;;;;;;7.09;93.43;99373.56;4862971;29;20057;-88
2022/12/11 10:30:22;;;;;;;4.20;3.72;;;;;;;6.99;94.83;99378.00;4877355;29;20053;-86
2022/12/11 10:33:21;;;;;;;6.55;4.53;;;;;;;7.07;95.86;99382.00;4881320;29;20052;-88
2022/12/11 10:35:52;;;;;;;5.95;4.78;;;;;;;7.01;95.74;99376.88;4881570;29;20061;-86
2022/12/11 10:38:43;;;;;;;7.07;5.60;;;;;;;7.11;95.45;99382.25;4881752;29;20057;-86
2022/12/11 10:41:23;;;;;;;6.40;5.75;;;;;;;7.07;96.59;99373.03;4880014;29;20404;-87
2022/12/11 10:43:52;;;;;;;5.38;4.50;;;;;;;7.22;95.63;99372.06;4880139;29;20416;-87
2022/12/11 10:46:26;;;;;;;6.00;4.57;;;;;;;7.22;95.27;99362.00;4879582;29;20053;-87
2022/12/11 10:48:57;;;;;;;13.63;11.35;;;;;;;7.19;96.40;99372.66;4880384;29;20508;-87
2022/12/11 10:51:34;;;;;;;6.75;4.35;;;;;;;7.15;96.25;99380.59;4878748;29;20053;-86
2022/12/11 10:54:37;;;;;;;6.03;4.72;;;;;;;6.92;96.75;99374.78;4868859;29;20068;-87
2022/12/11 10:57:07;;;;;;;14.38;12.57;;;;;;;6.95;96.47;99374.22;4875063;29;20416;-90
2022/12/11 10:59:48;;;;;;;7.88;7.07;;;;;;;6.69;94.69;99377.16;4863809;29;20046;-87
2022/12/11 11:02:25;;;;;;;7.30;5.75;;;;;;;6.63;93.90;99380.16;4875208;29;20041;-87
2022/12/11 11:05:00;;;;;;;5.13;4.63;;;;;;;6.57;92.93;99371.25;4870707;29;20068;-88
2022/12/11 11:07:34;;;;;;;7.45;4.82;;;;;;;6.67;92.38;99373.09;4876109;29;20057;-88
2022/12/11 11:10:04;;;;;;;47.53;26.88;;;;;;;6.64;94.56;99374.47;4860849;29;20046;-87
2022/12/11 11:12:46;;;;;;;6.53;4.80;;;;;;;6.74;93.19;99370.84;4864917;29;20049;-86
2022/12/11 11:15:21;;;;;;;14.50;6.72;;;;;;;6.75;94.53;99374.38;4897888;29;20045;-86
2022/12/11 11:17:59;;;;;;;11.07;5.22;;;;;;;6.74;93.95;99378.22;4867711;29;20066;-87
2022/12/11 11:20:33;;;;;;;5.65;4.18;;;;;;;6.93;93.20;99384.56;4878233;29;20049;-87
2022/12/11 11:23:12;;;;;;;6.30;4.60;;;;;;;6.95;91.26;99387.81;4880447;29;20073;-87
2022/12/11 11:25:55;;;;;;;7.38;5.07;;;;;;;6.88;90.28;99387.31;4842793;29;20053;-88
2022/12/11 11:28:33;;;;;;;6.03;4.40;;;;;;;7.05;92.95;99395.09;4825424;29;20054;-88
2022/12/11 11:31:15;;;;;;;6.72;4.07;;;;;;;6.96;92.57;99386.72;4825291;29;20066;-88
2022/12/11 11:33:56;;;;;;;7.40;5.07;;;;;;;7.02;93.52;99382.06;4825134;29;20046;-88
2022/12/11 11:36:27;;;;;;;6.97;5.22;;;;;;;6.91;94.21;99383.22;4824990;29;20065;-87
2022/12/11 11:39:01;;;;;;;5.35;4.43;;;;;;;6.91;93.84;99381.34;4825155;29;20050;-87
2022/12/11 11:41:43;;;;;;;6.38;4.22;;;;;;;6.91;91.00;99386.78;4823845;29;20406;-87
2022/12/11 11:44:18;;;;;;;7.60;4.35;;;;;;;6.70;91.47;99391.56;4827366;29;20058;-87
2022/12/11 11:46:58;;;;;;;6.35;4.00;;;;;;;6.61;89.96;99385.91;4843463;29;20053;-87
2022/12/11 11:49:44;;;;;;;6.25;4.40;;;;;;;6.68;90.68;99394.56;4843553;29;20066;-88
2022/12/11 11:52:28;;;;;;;5.55;4.20;;;;;;;6.65;89.19;99397.03;4843702;29;20046;-82
2022/12/11 11:55:38;;;;;;;5.78;3.35;;;;;;;6.32;88.90;99402.94;4842892;29;20050;-83
2022/12/11 11:58:16;;;;;;;4.22;3.22;;;;;;;6.32;87.54;99405.66;4839827;29;20041;-84
2022/12/11 12:00:44;;;;;;;3.15;2.85;;;;;;;6.28;88.86;99399.97;4856634;29;20042;-85
2022/12/11 12:03:15;;;;;;;4.90;3.08;;;;;;;6.20;86.35;99402.47;4823183;29;20065;-84
2022/12/11 12:05:49;;;;;;;5.40;2.78;;;;;;;6.23;87.19;99412.75;4835746;29;20417;-85
2022/12/11 12:08:52;;;;;;;4.20;2.63;;;;;;;6.12;88.23;99409.28;4841490;29;20505;-85